Time;durP1;ratioP1;P1;durP2;ratioP2;P2;SDS_P1;SDS_P2;PMS_P1;PMS_P2;Temp;Humidity;BMP_temperature;BMP_pressure;BME280_temperature;BME280_humidity;BME280_pressure;Samples;Min_cycle;Max_cycle;Signal;HPM_P1;HPM_P2
2022/09/19 00:01:25;;;;;;;3.30;2.20;;;;;;;10.88;70.55;100051.50;5087035;28;19919;-32
2022/09/19 00:04:01;;;;;;;2.80;1.90;;;;;;;11.10;68.16;100067.91;5086238;28;20071;-28
2022/09/19 00:06:28;;;;;;;3.78;2.17;;;;;;;11.22;68.20;100074.13;5070152;28;20047;-32
2022/09/19 00:08:54;;;;;;;3.67;2.08;;;;;;;11.19;67.71;100063.88;5071983;28;20039;-28
2022/09/19 00:11:20;;;;;;;4.53;2.50;;;;;;;11.11;67.71;100034.81;5090371;28;20020;-28
2022/09/19 00:13:48;;;;;;;3.08;2.00;;;;;;;11.29;67.78;100083.91;5089981;28;20036;-31
2022/09/19 00:16:20;;;;;;;4.15;2.75;;;;;;;11.08;68.94;100071.84;5090338;28;20489;-29
2022/09/19 00:18:47;;;;;;;3.47;2.13;;;;;;;11.15;68.79;100062.69;5090267;28;20070;-28
2022/09/19 00:21:27;;;;;;;4.75;2.67;;;;;;;11.16;68.60;100052.84;5090224;28;20031;-27
2022/09/19 00:26:38;;;;;;;5.18;2.47;;;;;;;11.08;70.68;100072.66;5090524;28;20093;-27
2022/09/19 00:29:05;;;;;;;4.50;2.47;;;;;;;10.91;71.25;100066.25;5090326;28;20123;-30
2022/09/19 00:31:31;;;;;;;3.55;2.38;;;;;;;10.98;70.90;100067.81;5090314;28;20555;-31
2022/09/19 00:33:57;;;;;;;4.82;2.42;;;;;;;11.05;70.39;100057.06;5089691;28;20115;-27
2022/09/19 00:36:23;;;;;;;3.97;2.30;;;;;;;10.75;72.54;100073.78;5089929;28;20108;-27
2022/09/19 00:38:49;;;;;;;2.78;2.10;;;;;;;10.64;72.63;100070.00;5089826;28;20039;-28
2022/09/19 00:41:18;;;;;;;3.63;2.38;;;;;;;10.59;72.83;100063.69;5089828;28;20073;-28
2022/09/19 00:43:43;;;;;;;2.88;2.17;;;;;;;10.33;73.89;100083.38;5089496;28;20031;-27
2022/09/19 00:46:09;;;;;;;3.55;2.40;;;;;;;9.76;72.87;100061.97;5089609;28;20028;-29
2022/09/19 00:48:35;;;;;;;2.80;2.28;;;;;;;9.50;74.28;100061.09;5070996;28;20035;-28
2022/09/19 00:51:04;;;;;;;3.35;2.60;;;;;;;9.37;75.30;100087.75;5071608;28;20407;-26
2022/09/19 00:53:30;;;;;;;4.68;2.65;;;;;;;9.55;75.33;100079.91;5089749;28;20064;-29
2022/09/19 00:55:56;;;;;;;3.13;2.55;;;;;;;9.77;74.12;100082.28;5089287;28;20031;-28
2022/09/19 00:58:44;;;;;;;3.83;2.58;;;;;;;10.02;73.69;100080.47;5089382;28;20476;-28
2022/09/19 01:01:11;;;;;;;4.13;2.70;;;;;;;10.03;73.54;100060.81;5071010;28;20031;-28
2022/09/19 01:03:37;;;;;;;6.25;2.70;;;;;;;10.00;74.24;100063.88;5089532;28;20118;-27
2022/09/19 01:06:05;;;;;;;3.63;2.50;;;;;;;9.80;75.43;100087.16;5089010;28;20135;-32
2022/09/19 01:08:36;;;;;;;3.90;2.40;;;;;;;9.89;75.06;100080.56;5089555;28;20100;-27
2022/09/19 01:11:36;;;;;;;4.53;2.65;;;;;;;9.74;73.36;100088.00;5089358;28;20390;-26
2022/09/19 01:14:39;;;;;;;3.67;2.50;;;;;;;9.59;74.39;100081.13;5089230;28;20107;-27
2022/09/19 01:17:28;;;;;;;2.70;2.35;;;;;;;9.72;73.83;100047.47;5070645;28;20773;-28
2022/09/19 01:20:11;;;;;;;;;;;;;;;9.47;76.34;100072.16;5089326;28;20494;-27
2022/09/19 01:22:43;;;;;;;3.78;2.95;;;;;;;9.67;76.74;100074.75;5070769;28;19911;-30
2022/09/19 01:25:33;;;;;;;6.10;3.20;;;;;;;9.90;74.28;100066.22;5089149;28;20126;-27
2022/09/19 01:28:13;;;;;;;6.00;3.00;;;;;;;10.21;74.57;100067.22;5088752;28;20132;-28
2022/09/19 01:31:16;;;;;;;3.55;2.63;;;;;;;10.02;74.63;100069.81;5070777;28;20119;-34
2022/09/19 01:33:40;;;;;;;3.45;2.40;;;;;;;10.01;74.29;100044.22;5088528;28;20036;-28
2022/09/19 01:36:09;;;;;;;3.58;2.20;;;;;;;10.31;72.05;100067.59;5088398;28;20765;-31
2022/09/19 01:38:38;;;;;;;3.95;2.53;;;;;;;10.05;72.89;100069.41;5070257;28;20028;-28
2022/09/19 01:41:07;;;;;;;3.13;2.15;;;;;;;9.96;72.45;100069.88;5088747;28;20035;-28
2022/09/19 01:43:33;;;;;;;3.92;2.38;;;;;;;9.75;72.67;100031.06;5088644;28;20399;-26
2022/09/19 01:46:08;;;;;;;4.07;2.47;;;;;;;9.69;73.13;100053.22;5088706;28;20032;-27
2022/09/19 01:48:39;;;;;;;4.93;2.50;;;;;;;9.76;73.46;100061.97;5088901;28;20028;-27
2022/09/19 01:51:23;;;;;;;5.70;2.47;;;;;;;9.78;72.42;100065.25;5088230;28;20056;-33
2022/09/19 01:54:16;;;;;;;3.47;2.20;;;;;;;9.74;72.11;100064.03;5088540;28;20081;-27
2022/09/19 01:56:50;;;;;;;4.28;2.58;;;;;;;9.69;73.51;100042.59;5088477;28;20040;-28
2022/09/19 01:59:54;;;;;;;3.60;2.42;;;;;;;9.81;74.15;100030.22;5088602;28;20024;-27
2022/09/19 02:02:39;;;;;;;3.40;2.40;;;;;;;10.22;72.94;100053.69;5088319;28;20066;-28
2022/09/19 02:05:21;;;;;;;4.18;2.33;;;;;;;10.27;72.17;100045.03;5088305;28;20419;-28
2022/09/19 02:08:28;;;;;;;2.75;2.03;;;;;;;10.41;69.80;100061.78;5087809;28;20020;-31
2022/09/19 02:11:00;;;;;;;3.25;1.98;;;;;;;10.39;69.18;100048.66;5038387;28;20401;-29
2022/09/19 02:13:29;;;;;;;2.33;2.00;;;;;;;10.33;70.88;100038.06;5088204;28;20033;-32
2022/09/19 02:16:04;;;;;;;5.13;2.13;;;;;;;10.25;70.81;100047.09;5087773;28;20028;-27
2022/09/19 02:18:59;;;;;;;3.35;2.05;;;;;;;10.20;72.04;100071.75;5088015;28;20024;-31
2022/09/19 02:21:52;;;;;;;2.88;2.03;;;;;;;9.46;72.21;100070.53;5085376;28;20032;-27
2022/09/19 02:24:26;;;;;;;2.65;2.05;;;;;;;9.03;73.57;100057.75;5087813;28;20112;-27
2022/09/19 02:26:54;;;;;;;3.22;2.25;;;;;;;8.99;74.57;100076.00;5087886;28;20060;-29
2022/09/19 02:29:28;;;;;;;3.03;2.00;;;;;;;8.72;76.45;100067.25;5087426;28;20023;-27
2022/09/19 02:31:56;;;;;;;3.30;2.10;;;;;;;8.45;77.74;100045.19;5087423;28;20028;-28
2022/09/19 02:34:22;;;;;;;3.10;2.20;;;;;;;8.37;78.91;100070.09;5087749;28;20028;-28
2022/09/19 02:37:02;;;;;;;3.47;2.35;;;;;;;8.70;77.95;100052.53;5087473;28;20392;-28
2022/09/19 02:39:44;;;;;;;3.42;2.40;;;;;;;8.91;78.03;100062.09;5088108;28;20132;-28
2022/09/19 02:42:43;;;;;;;3.35;2.65;;;;;;;8.78;79.37;100068.25;5087948;28;20088;-27
2022/09/19 02:45:17;;;;;;;2.78;2.50;;;;;;;9.19;78.28;100081.28;5069038;28;20024;-26
2022/09/19 02:47:49;;;;;;;3.35;2.53;;;;;;;8.64;80.62;100083.41;5087417;28;20411;-28
2022/09/19 02:50:59;;;;;;;4.38;2.30;;;;;;;8.44;82.20;100076.28;5087554;28;20057;-28
2022/09/19 02:53:29;;;;;;;4.95;2.75;;;;;;;8.57;80.40;100050.69;5068981;28;20040;-27
2022/09/19 02:55:59;;;;;;;4.45;2.70;;;;;;;8.64;79.63;100051.50;5087190;28;20119;-27
2022/09/19 02:58:30;;;;;;;3.47;2.88;;;;;;;9.06;78.21;100062.69;5087711;28;20484;-29
2022/09/19 03:01:02;;;;;;;5.47;3.22;;;;;;;9.05;77.69;100066.34;5069329;28;20437;-27
2022/09/19 03:06:24;;;;;;;4.22;3.05;;;;;;;9.07;78.30;100066.97;5087411;28;20051;-27
2022/09/19 03:08:53;;;;;;;3.75;3.05;;;;;;;8.63;81.33;100074.63;5087411;28;20039;-26
2022/09/19 03:11:22;;;;;;;5.07;3.15;;;;;;;8.46;82.53;100070.75;5087327;28;20032;-27
2022/09/19 03:13:47;;;;;;;7.10;2.95;;;;;;;8.48;81.62;100060.75;5086854;28;20024;-29
2022/09/19 03:16:21;;;;;;;6.53;3.50;;;;;;;8.74;80.21;100062.53;5087197;28;20038;-29
2022/09/19 03:18:48;;;;;;;4.00;3.15;;;;;;;8.66;79.96;100062.75;5087260;28;20032;-27
2022/09/19 03:21:20;;;;;;;3.75;2.85;;;;;;;8.44;80.67;100052.34;5069005;28;20028;-26
2022/09/19 03:23:49;;;;;;;4.65;3.03;;;;;;;8.36;81.17;100060.50;5086813;28;20024;-28
2022/09/19 03:26:25;;;;;;;6.18;3.63;;;;;;;8.61;80.24;100086.50;5087076;28;20028;-27
2022/09/19 03:28:51;;;;;;;5.25;3.60;;;;;;;8.43;81.15;100081.78;5086536;28;20028;-27
2022/09/19 03:31:17;;;;;;;5.13;3.38;;;;;;;8.44;80.38;100084.25;5087094;28;20031;-30
2022/09/19 03:33:42;;;;;;;4.28;3.05;;;;;;;7.95;82.63;100074.75;5086502;28;20436;-28
2022/09/19 03:36:08;;;;;;;5.93;3.20;;;;;;;8.18;81.23;100069.06;5085885;28;20028;-33
2022/09/19 03:38:44;;;;;;;6.07;3.47;;;;;;;8.51;80.56;100088.75;5085568;28;20036;-30
2022/09/19 03:41:13;;;;;;;6.60;3.70;;;;;;;8.90;78.28;100085.22;5089665;28;20039;-27
2022/09/19 03:43:42;;;;;;;5.28;3.40;;;;;;;8.65;78.48;100063.78;5090642;28;20039;-27
2022/09/19 03:46:09;;;;;;;5.10;3.00;;;;;;;8.88;78.24;100075.81;5090571;28;20148;-27
2022/09/19 03:48:36;;;;;;;6.00;3.35;;;;;;;8.69;79.71;100080.16;5090877;28;20032;-28
2022/09/19 03:51:01;;;;;;;3.92;2.88;;;;;;;8.78;78.95;100085.03;5090966;28;20028;-28
2022/09/19 03:53:27;;;;;;;3.88;2.95;;;;;;;8.75;77.64;100080.13;5090526;28;20039;-27
2022/09/19 03:55:55;;;;;;;4.80;3.03;;;;;;;8.82;76.99;100075.59;5090278;28;20031;-27
2022/09/19 03:58:20;;;;;;;4.47;3.10;;;;;;;9.03;76.79;100082.53;5090510;28;20032;-28
2022/09/19 04:00:46;;;;;;;5.53;3.28;;;;;;;8.87;75.49;100061.72;5072215;28;20027;-27
2022/09/19 04:03:11;;;;;;;4.35;3.30;;;;;;;8.80;76.56;100082.97;5090486;28;20024;-26
2022/09/19 04:05:37;;;;;;;5.30;3.30;;;;;;;8.58;76.38;100065.63;5090313;28;20110;-28
2022/09/19 04:08:03;;;;;;;8.02;3.80;;;;;;;8.59;77.41;100075.25;5090475;28;20550;-26
2022/09/19 04:10:28;;;;;;;6.70;3.53;;;;;;;8.96;77.36;100086.25;5090259;28;20709;-31
2022/09/19 04:12:56;;;;;;;5.30;3.40;;;;;;;8.88;76.29;100073.16;5090442;28;20024;-28
2022/09/19 04:15:22;;;;;;;4.95;3.20;;;;;;;8.83;76.96;100087.91;5090301;28;20055;-31
2022/09/19 04:17:47;;;;;;;4.72;3.67;;;;;;;8.63;77.77;100060.50;5090183;28;20064;-26
2022/09/19 04:20:13;;;;;;;5.43;3.80;;;;;;;8.85;76.87;100096.47;5090185;28;20028;-28
2022/09/19 04:22:38;;;;;;;6.68;3.50;;;;;;;8.77;77.39;100094.03;5090034;28;20024;-29
2022/09/19 04:25:10;;;;;;;5.90;3.30;;;;;;;8.73;77.72;100098.13;5089894;28;20060;-27
2022/09/19 04:27:39;;;;;;;4.35;3.72;;;;;;;8.79;77.00;100086.69;5090069;28;20483;-26
2022/09/19 04:30:04;;;;;;;;;;;;;;;8.96;77.55;100092.38;5090219;28;20039;-30
2022/09/19 04:32:30;;;;;;;5.53;3.60;;;;;;;8.81;78.42;100083.81;5089710;28;19908;-28
2022/09/19 04:34:59;;;;;;;4.50;3.40;;;;;;;8.96;79.13;100107.50;5089766;28;20028;-27
2022/09/19 04:37:24;;;;;;;4.75;3.00;;;;;;;9.10;77.84;100103.81;5089654;28;20506;-30
2022/09/19 04:39:50;;;;;;;3.70;3.03;;;;;;;8.82;80.23;100096.06;5089721;28;20027;-29
2022/09/19 04:42:17;;;;;;;7.32;3.25;;;;;;;8.93;78.90;100083.97;5089911;28;20391;-27
2022/09/19 04:44:43;;;;;;;4.38;2.83;;;;;;;9.02;79.84;100102.19;5089410;28;20110;-28
2022/09/19 04:47:10;;;;;;;4.80;2.75;;;;;;;9.20;78.76;100098.88;5089773;28;20063;-26
2022/09/19 04:49:39;;;;;;;7.57;3.55;;;;;;;9.08;79.76;100089.91;5089524;28;20020;-28
2022/09/19 04:52:12;;;;;;;5.85;3.67;;;;;;;9.23;78.23;100087.81;5088808;28;20035;-30
2022/09/19 04:54:38;;;;;;;6.45;3.30;;;;;;;9.19;78.91;100085.75;5089318;28;20035;-26
2022/09/19 04:57:05;;;;;;;5.20;3.35;;;;;;;9.15;80.39;100105.84;5089521;28;20028;-27
2022/09/19 04:59:33;;;;;;;6.45;3.38;;;;;;;8.91;80.75;100104.66;5089454;28;20016;-27
2022/09/19 05:01:59;;;;;;;7.63;5.20;;;;;;;8.73;80.87;100114.09;5089207;28;20028;-26
2022/09/19 05:04:25;;;;;;;6.78;4.53;;;;;;;8.73;81.05;100094.66;5089128;28;20052;-32
2022/09/19 05:06:51;;;;;;;10.25;7.25;;;;;;;8.68;82.10;100111.22;5089169;28;20517;-30
2022/09/19 05:09:17;;;;;;;7.57;5.47;;;;;;;9.00;81.72;100111.41;5089340;28;20036;-28
2022/09/19 05:11:46;;;;;;;6.93;4.68;;;;;;;9.13;82.39;100119.34;5089012;28;20020;-28
2022/09/19 05:14:14;;;;;;;5.93;4.03;;;;;;;9.13;81.30;100114.00;5088970;28;20043;-27
2022/09/19 05:16:40;;;;;;;7.70;4.32;;;;;;;9.04;81.42;100094.00;5088900;28;20032;-28
2022/09/19 05:19:07;;;;;;;5.03;3.65;;;;;;;9.24;81.00;100102.75;5089158;28;20045;-27
2022/09/19 05:21:33;;;;;;;9.63;8.02;;;;;;;9.52;79.52;100096.31;5088517;28;20146;-26
2022/09/19 05:24:00;;;;;;;33.33;29.95;;;;;;;9.66;78.94;100091.72;5070166;28;20024;-27
2022/09/19 05:26:26;;;;;;;42.25;37.78;;;;;;;9.94;78.64;100119.88;5088854;28;20812;-27
2022/09/19 05:28:51;;;;;;;37.90;34.10;;;;;;;9.84;79.02;100099.03;5088698;28;20028;-27
2022/09/19 05:31:18;;;;;;;36.53;32.83;;;;;;;9.88;79.64;100102.09;5088713;28;20028;-28
2022/09/19 05:33:44;;;;;;;31.83;28.42;;;;;;;10.12;78.82;100095.19;5088648;28;20020;-26
2022/09/19 05:36:09;;;;;;;31.27;27.70;;;;;;;10.53;75.54;100094.69;5070226;28;20424;-28
2022/09/19 05:38:36;;;;;;;28.30;25.30;;;;;;;10.84;73.39;100099.13;5088614;28;20052;-28
2022/09/19 05:41:03;;;;;;;29.27;26.17;;;;;;;11.02;72.37;100102.88;5088393;28;20411;-28
2022/09/19 05:43:29;;;;;;;32.13;27.65;;;;;;;11.52;72.39;100117.94;5088397;28;20581;-28
2022/09/19 05:45:56;;;;;;;29.85;24.83;;;;;;;11.55;68.37;100104.97;5088469;28;20031;-26
2022/09/19 05:48:23;;;;;;;23.80;21.13;;;;;;;11.49;68.51;100087.16;5088433;28;20027;-29
2022/09/19 05:50:49;;;;;;;20.17;16.88;;;;;;;11.91;68.12;100118.50;5088281;28;20032;-26
2022/09/19 05:56:00;;;;;;;14.55;12.93;;;;;;;12.16;66.13;100113.03;5088375;28;20572;-27
2022/09/19 05:58:28;;;;;;;11.20;8.85;;;;;;;12.39;66.24;100115.75;5087992;28;20036;-27
2022/09/19 06:00:54;;;;;;;10.83;7.93;;;;;;;12.34;64.89;100085.38;5088001;28;20539;-30
2022/09/19 06:03:21;;;;;;;10.27;7.90;;;;;;;12.74;64.66;100096.25;5087074;28;20380;-28
2022/09/19 06:05:49;;;;;;;11.00;7.45;;;;;;;12.92;62.68;100118.63;5087885;28;20059;-28
2022/09/19 06:08:19;;;;;;;10.05;6.47;;;;;;;13.05;62.95;100113.00;5069973;28;20519;-31
2022/09/19 06:10:45;;;;;;;5.75;3.55;;;;;;;13.09;63.13;100097.31;5087594;28;20032;-27
2022/09/19 06:13:13;;;;;;;5.85;3.67;;;;;;;13.25;65.60;100118.81;5087894;28;20028;-26
2022/09/19 06:15:38;;;;;;;5.13;3.23;;;;;;;13.33;62.74;100106.16;5087601;28;20088;-28
2022/09/19 06:18:04;;;;;;;5.82;3.35;;;;;;;13.43;63.26;100117.06;5087730;28;20067;-27
2022/09/19 06:20:30;;;;;;;3.80;2.50;;;;;;;13.44;62.30;100126.72;5069557;28;20032;-27
2022/09/19 06:23:02;;;;;;;5.43;2.67;;;;;;;13.39;61.93;100108.69;5087832;28;20454;-28
2022/09/19 06:25:29;;;;;;;5.75;2.70;;;;;;;13.24;62.75;100132.47;5087581;28;20031;-30
2022/09/19 06:27:57;;;;;;;3.78;2.42;;;;;;;13.60;59.61;100136.72;5069235;28;20036;-28
2022/09/19 06:30:23;;;;;;;4.45;2.80;;;;;;;13.75;61.10;100138.06;5087223;28;20028;-28
2022/09/19 06:32:50;;;;;;;6.55;3.00;;;;;;;13.48;60.11;100127.88;5052445;28;20032;-27
2022/09/19 06:35:17;;;;;;;5.20;2.45;;;;;;;13.76;60.66;100131.66;5087586;28;20028;-32
2022/09/19 06:37:43;;;;;;;2.78;2.00;;;;;;;13.91;59.87;100137.31;5086559;28;20043;-27
2022/09/19 06:40:10;;;;;;;3.33;2.17;;;;;;;14.12;59.26;100132.31;5087089;28;20028;-27
2022/09/19 06:42:36;;;;;;;2.25;1.58;;;;;;;14.34;56.04;100135.94;5087400;28;20459;-29
2022/09/19 06:45:03;;;;;;;3.20;1.80;;;;;;;14.26;58.57;100133.66;5087128;28;20028;-27
2022/09/19 06:47:28;;;;;;;2.53;1.55;;;;;;;14.23;57.00;100131.47;5087682;28;20112;-29
2022/09/19 06:49:54;;;;;;;4.18;1.90;;;;;;;14.39;57.45;100149.47;5086761;28;20115;-27
2022/09/19 06:52:19;;;;;;;3.25;1.60;;;;;;;14.52;57.61;100136.78;5086786;28;20139;-28
2022/09/19 06:54:44;;;;;;;3.50;1.80;;;;;;;14.57;56.74;100150.34;5086583;28;20032;-27
2022/09/19 06:57:11;;;;;;;3.10;1.50;;;;;;;14.45;55.34;100131.59;5068447;28;20034;-29
2022/09/19 06:59:37;;;;;;;2.45;1.58;;;;;;;14.77;55.03;100145.28;5068434;28;20126;-29
2022/09/19 07:02:03;;;;;;;1.98;1.35;;;;;;;14.74;52.09;100126.97;5068273;28;20039;-30
2022/09/19 07:04:28;;;;;;;1.92;1.38;;;;;;;14.90;54.01;100122.66;5086531;28;20068;-29
2022/09/19 07:06:56;;;;;;;2.60;1.20;;;;;;;15.31;53.33;100141.22;5086985;28;20020;-27
2022/09/19 07:09:22;;;;;;;;;;;;;;;15.32;52.24;100137.47;5087215;28;20024;-27
2022/09/19 07:11:47;;;;;;;1.83;1.00;;;;;;;15.21;51.82;100134.63;5068420;28;20295;-34
2022/09/19 07:14:13;;;;;;;2.40;1.20;;;;;;;15.49;52.61;100135.56;5086649;28;20081;-29
2022/09/19 07:16:38;;;;;;;2.15;1.25;;;;;;;15.52;50.84;100135.03;5086717;28;20028;-33
2022/09/19 07:19:04;;;;;;;2.10;1.08;;;;;;;15.64;49.27;100137.63;5086740;28;20081;-27
2022/09/19 07:21:29;;;;;;;2.85;1.13;;;;;;;15.74;52.04;100126.19;5086534;28;20039;-30
2022/09/19 07:23:54;;;;;;;1.48;1.10;;;;;;;15.76;51.76;100119.50;5086443;28;20028;-28
2022/09/19 07:26:21;;;;;;;1.95;1.30;;;;;;;15.93;49.86;100135.53;5086551;28;20031;-29
2022/09/19 07:28:47;;;;;;;3.25;1.33;;;;;;;16.13;49.61;100134.94;5068877;28;20028;-29
2022/09/19 07:31:12;;;;;;;1.98;1.20;;;;;;;15.93;49.01;100130.16;5086635;28;20035;-27
2022/09/19 07:33:37;;;;;;;1.55;1.10;;;;;;;16.09;49.16;100125.75;5086789;28;20061;-26
2022/09/19 07:36:04;;;;;;;1.73;1.08;;;;;;;16.09;49.71;100112.31;5086118;28;20054;-30
2022/09/19 07:38:30;;;;;;;3.60;1.30;;;;;;;16.41;48.79;100103.47;5086732;28;20722;-27
2022/09/19 07:40:55;;;;;;;4.13;1.30;;;;;;;16.51;48.93;100125.09;5086626;28;20031;-30
2022/09/19 07:43:21;;;;;;;2.72;1.35;;;;;;;16.43;49.26;100106.72;5086334;28;20093;-28
2022/09/19 07:45:49;;;;;;;2.67;1.35;;;;;;;16.52;48.07;100113.22;5086595;28;20028;-28
2022/09/19 07:48:15;;;;;;;;;;;;;;;16.82;48.95;100126.16;5086907;28;20491;-28
2022/09/19 07:50:41;;;;;;;2.63;1.25;;;;;;;17.04;48.00;100114.41;5086550;28;19912;-29
2022/09/19 07:53:11;;;;;;;2.28;1.20;;;;;;;17.44;47.72;100126.50;5086303;28;20085;-27
2022/09/19 07:55:37;;;;;;;2.80;1.30;;;;;;;17.54;45.74;100126.53;5086347;28;20055;-28
2022/09/19 07:58:04;;;;;;;1.60;1.20;;;;;;;17.66;45.13;100120.94;5086235;28;20028;-28
2022/09/19 08:00:31;;;;;;;2.37;1.10;;;;;;;17.72;46.44;100105.59;5086529;28;20040;-28
2022/09/19 08:03:11;;;;;;;0.98;0.82;;;;;;;18.21;44.96;100124.88;5067743;28;20036;-29
2022/09/19 08:05:39;;;;;;;3.15;1.20;;;;;;;18.09;42.73;100126.22;5086405;28;20131;-29
2022/09/19 08:08:07;;;;;;;2.38;1.10;;;;;;;18.28;43.91;100108.41;5085951;28;20036;-27
2022/09/19 08:10:33;;;;;;;3.28;1.17;;;;;;;18.25;42.65;100119.75;5086469;28;20028;-28
2022/09/19 08:13:03;;;;;;;1.50;0.88;;;;;;;18.22;40.77;100117.56;5086453;28;20415;-33
2022/09/19 08:15:30;;;;;;;3.05;0.80;;;;;;;18.39;41.94;100096.53;5086339;28;20035;-31
2022/09/19 08:17:57;;;;;;;4.00;1.30;;;;;;;18.58;41.13;100106.81;5086253;28;20024;-28
2022/09/19 08:20:25;;;;;;;1.15;0.77;;;;;;;18.31;39.53;100085.44;5086271;28;20039;-28
2022/09/19 08:22:58;;;;;;;1.45;0.77;;;;;;;18.30;38.87;100090.03;5067692;28;20059;-28
2022/09/19 08:25:28;;;;;;;3.10;1.00;;;;;;;18.30;39.72;100084.66;5086400;28;20024;-29
2022/09/19 08:27:55;;;;;;;1.55;0.73;;;;;;;18.54;38.82;100094.91;5088482;28;20023;-30
2022/09/19 08:30:21;;;;;;;1.08;0.55;;;;;;;18.35;37.72;100084.66;5090008;28;20040;-27
2022/09/19 08:32:49;;;;;;;1.90;0.70;;;;;;;18.56;35.75;100073.84;5071868;28;20039;-27
2022/09/19 08:35:16;;;;;;;1.27;0.75;;;;;;;18.98;36.81;100080.81;5071419;28;20032;-29
2022/09/19 08:37:43;;;;;;;0.75;0.60;;;;;;;19.01;36.45;100088.38;5089945;28;20024;-30
2022/09/19 08:40:15;;;;;;;0.90;0.57;;;;;;;18.89;34.75;100063.56;5089467;28;20028;-27
2022/09/19 08:42:52;;;;;;;1.27;0.50;;;;;;;19.04;34.29;100071.63;5071258;28;20032;-28
2022/09/19 08:45:36;;;;;;;2.45;0.90;;;;;;;19.02;36.00;100054.84;5089399;28;20036;-28
2022/09/19 08:48:08;;;;;;;1.08;0.82;;;;;;;19.35;36.64;100060.69;5071165;28;20402;-29
2022/09/19 08:50:38;;;;;;;1.25;0.77;;;;;;;19.78;35.29;100055.66;5089416;28;20028;-29
2022/09/19 08:53:06;;;;;;;1.65;0.80;;;;;;;20.00;33.22;100061.44;5071232;28;20122;-30
2022/09/19 08:55:35;;;;;;;2.22;0.60;;;;;;;19.98;33.77;100054.69;5089351;28;20032;-28
2022/09/19 08:58:17;;;;;;;0.73;0.60;;;;;;;20.39;32.63;100047.06;5070624;28;20044;-28
2022/09/19 09:00:46;;;;;;;1.95;0.57;;;;;;;20.48;32.76;100058.06;5070940;28;20483;-28
2022/09/19 09:03:38;;;;;;;1.70;0.60;;;;;;;20.54;38.24;100042.59;5089028;28;20036;-27
2022/09/19 09:06:35;;;;;;;1.42;0.70;;;;;;;20.58;33.54;100021.97;5070626;28;20127;-28
2022/09/19 09:09:21;;;;;;;0.70;0.60;;;;;;;21.03;34.60;100041.56;5057151;28;20737;-29
2022/09/19 09:11:51;;;;;;;0.95;0.68;;;;;;;21.36;36.11;100041.69;5088873;28;20441;-28
2022/09/19 09:14:17;;;;;;;1.80;0.77;;;;;;;21.49;34.57;100038.28;5074468;28;20032;-28
2022/09/19 09:17:14;;;;;;;1.45;0.80;;;;;;;21.62;32.49;100034.03;5050527;28;20031;-28
2022/09/19 09:20:00;;;;;;;;;;;;;;;21.53;32.41;100039.31;5069352;28;20104;-27
2022/09/19 09:22:32;;;;;;;4.82;2.75;;;;;;;21.31;31.47;100029.00;5068777;28;20591;-29
2022/09/19 09:25:28;;;;;;;1.83;0.73;;;;;;;21.70;33.66;100022.53;5050212;28;20028;-28
2022/09/19 09:28:18;;;;;;;1.17;0.57;;;;;;;21.90;31.99;100010.53;5050096;28;20470;-30
2022/09/19 09:30:49;;;;;;;1.48;0.65;;;;;;;22.07;32.31;100018.16;5068060;28;20050;-30
2022/09/19 09:33:29;;;;;;;1.35;0.70;;;;;;;22.35;31.66;100018.25;5068584;28;20032;-30
2022/09/19 09:36:02;;;;;;;0.55;0.50;;;;;;;22.39;30.61;100014.66;5067929;28;20032;-29
2022/09/19 09:38:32;;;;;;;1.40;0.60;;;;;;;22.14;31.08;100001.47;5049743;28;20033;-28
2022/09/19 09:44:23;;;;;;;2.53;0.53;;;;;;;22.40;29.01;100005.38;5067640;28;20098;-29
2022/09/19 09:47:09;;;;;;;1.05;0.57;;;;;;;22.32;31.00;99997.91;5067885;28;20255;-29
2022/09/19 09:49:34;;;;;;;26.98;18.13;;;;;;;22.54;29.48;99988.31;5067664;28;20480;-29
2022/09/19 09:52:21;;;;;;;2.08;1.30;;;;;;;22.52;28.66;100002.19;5067561;28;20025;-27
2022/09/19 09:57:38;;;;;;;0.75;0.50;;;;;;;22.84;26.96;99995.88;5067748;28;20553;-32
2022/09/19 10:05:58;;;;;;;1.55;0.60;;;;;;;22.62;28.59;99974.00;5067358;28;20106;-28
2022/09/19 10:08:33;;;;;;;0.75;0.40;;;;;;;22.66;28.36;99985.91;5049270;28;20029;-28
2022/09/19 10:11:11;;;;;;;0.88;0.57;;;;;;;22.70;27.45;99984.19;5049230;28;20090;-29
2022/09/19 10:13:45;;;;;;;1.63;0.45;;;;;;;22.93;26.15;99966.03;5049573;28;20043;-29
2022/09/19 10:16:14;;;;;;;0.63;0.47;;;;;;;23.30;27.54;99971.56;5066615;28;20032;-29
2022/09/19 10:19:14;;;;;;;1.13;0.52;;;;;;;23.15;27.03;99965.34;5065801;28;20025;-28
2022/09/19 10:21:40;;;;;;;1.08;0.55;;;;;;;23.43;27.12;99967.97;5045493;28;20041;-31
2022/09/19 10:24:42;;;;;;;1.23;0.68;;;;;;;23.73;27.78;99962.94;5067063;28;20036;-30
2022/09/19 10:27:11;;;;;;;21.95;1.63;;;;;;;24.06;27.18;99961.56;5066920;28;20111;-28
2022/09/19 10:29:50;;;;;;;11.93;1.35;;;;;;;24.38;25.90;99950.69;5048864;28;20052;-32
2022/09/19 10:32:23;;;;;;;1.02;0.70;;;;;;;24.54;25.46;99943.72;5067373;28;20036;-32
2022/09/19 10:34:50;;;;;;;7.32;0.98;;;;;;;25.11;24.38;99956.53;5067142;28;20048;-28
2022/09/19 10:37:17;;;;;;;;;;;;;;;25.00;27.01;99950.56;5049452;28;20021;-29
2022/09/19 10:39:44;;;;;;;6.53;1.48;;;;;;;24.98;25.66;99946.56;5082327;28;19916;-28
2022/09/19 10:42:42;;;;;;;2.95;0.90;;;;;;;24.34;25.56;99939.59;5048676;28;20522;-29
2022/09/19 10:45:19;;;;;;;2.55;0.77;;;;;;;24.60;26.32;99942.47;5037086;28;20044;-32
2022/09/19 10:47:47;;;;;;;2.42;0.70;;;;;;;24.96;27.29;99914.13;5048598;28;20032;-32
2022/09/19 10:50:16;;;;;;;1.88;0.73;;;;;;;24.32;26.27;99925.50;5066380;28;20051;-29
2022/09/19 10:52:44;;;;;;;0.75;0.60;;;;;;;24.29;26.05;99907.03;5048367;28;20079;-28
2022/09/19 10:55:21;;;;;;;2.30;0.65;;;;;;;24.59;28.01;99913.59;5048669;28;20480;-29
2022/09/19 10:57:57;;;;;;;1.65;0.70;;;;;;;24.90;25.26;99909.16;5066724;28;20495;-27
2022/09/19 11:00:26;;;;;;;1.40;0.50;;;;;;;24.95;24.94;99918.00;5048569;28;20021;-28
2022/09/19 11:03:23;;;;;;;1.48;0.50;;;;;;;25.29;26.21;99913.72;5066513;28;20032;-28
2022/09/19 11:06:01;;;;;;;0.47;0.47;;;;;;;25.19;26.23;99906.63;5036130;28;20060;-29
2022/09/19 11:08:28;;;;;;;1.83;0.60;;;;;;;25.05;25.21;99892.34;5066599;28;20137;-28
2022/09/19 11:10:54;;;;;;;2.25;0.75;;;;;;;25.48;24.01;99893.47;5066562;28;20029;-31
2022/09/19 11:13:22;;;;;;;2.22;0.60;;;;;;;25.64;24.64;99900.84;5048426;28;20431;-28
2022/09/19 11:16:17;;;;;;;2.08;0.50;;;;;;;25.27;25.87;99894.13;5048581;28;20085;-28
2022/09/19 11:19:02;;;;;;;1.48;0.50;;;;;;;25.42;24.96;99904.56;5048471;28;20407;-35
2022/09/19 11:21:34;;;;;;;0.80;0.50;;;;;;;25.79;25.33;99898.72;5048264;28;20036;-29
2022/09/19 11:24:08;;;;;;;1.27;0.70;;;;;;;25.26;25.23;99876.94;5066258;28;20031;-30
2022/09/19 11:26:41;;;;;;;7.80;0.93;;;;;;;25.58;24.91;99888.50;5066464;28;20036;-31
2022/09/19 11:29:35;;;;;;;1.90;0.60;;;;;;;25.56;25.17;99874.34;5066699;28;20025;-27
2022/09/19 11:32:08;;;;;;;0.98;0.52;;;;;;;25.65;24.65;99874.34;5066032;28;20033;-29
2022/09/19 11:35:14;;;;;;;0.68;0.45;;;;;;;26.14;25.26;99863.13;5066356;28;20081;-32
2022/09/19 11:37:57;;;;;;;1.63;0.83;;;;;;;25.66;24.45;99856.81;5065884;28;20393;-32
2022/09/19 11:40:22;;;;;;;2.83;0.60;;;;;;;26.18;24.13;99856.66;5047982;28;20033;-31
2022/09/19 11:43:07;;;;;;;4.15;2.17;;;;;;;26.20;24.22;99846.22;5066098;28;20044;-28
2022/09/19 11:45:55;;;;;;;2.10;0.80;;;;;;;25.78;24.28;99854.19;5048098;28;20468;-30
2022/09/19 11:48:31;;;;;;;4.72;1.08;;;;;;;26.09;24.71;99846.91;5066162;28;20025;-30
2022/09/19 11:51:08;;;;;;;1.27;0.52;;;;;;;26.68;24.81;99840.66;5047888;28;20039;-28
2022/09/19 11:54:02;;;;;;;;;;;;;;;26.74;24.44;99842.06;5066613;28;20028;-35
2022/09/19 11:56:44;;;;;;;1.20;0.57;;;;;;;26.91;25.92;99833.72;5048102;28;19916;-28
2022/09/19 11:59:33;;;;;;;1.10;0.70;;;;;;;26.67;25.19;99834.38;5066379;28;20032;-30
2022/09/19 12:02:09;;;;;;;1.15;0.70;;;;;;;26.59;24.37;99829.78;5048611;28;20753;-28
2022/09/19 12:04:48;;;;;;;0.93;0.60;;;;;;;26.88;24.34;99812.50;5051407;28;20527;-31
2022/09/19 12:08:04;;;;;;;2.40;0.60;;;;;;;26.75;24.08;99824.53;5069887;28;20047;-28
2022/09/19 12:10:42;;;;;;;1.00;0.60;;;;;;;26.92;24.79;99790.75;5043617;28;20051;-28
2022/09/19 12:13:19;;;;;;;;;;;;;;;27.17;25.01;99811.59;5052465;28;20119;-30
2022/09/19 12:15:48;;;;;;;;;;;;;;;27.17;24.90;99803.38;5070120;28;19959;-31